EDDM/MUC METAR and TAF weather

Enter ICAO airport designator
Station Type Date Time Source
EDDM METAR 2021/08/02 02:20 UTC NOAA

EDDM 020220Z 24009KT 9999 FEW037 13/11 Q1015 NOSIG


Station Type Date Time Source
EDDM Decoded METAR 2021/08/02 02:20 UTC NOAA

Munchen, Germany (EDDM) 48-21N 011-47E
Aug 01, 2021 - 10:20 PM EDT / 2021.08.02 0220 UTC
Wind: from the WSW (240 degrees) at 10 MPH (9 KT):0
Visibility: greater than 7 mile(s):0
Sky conditions: mostly clear
Temperature: 55 F (13 C)
Dew Point: 51 F (11 C)
Relative Humidity: 87%
Pressure (altimeter): 29.97 in. Hg (1015 hPa)
ob: EDDM 020220Z 24009KT 9999 FEW037 13/11 Q1015 NOSIG
cycle: 2

Station Type Date Time Source
EDDM TAF 2021/08/01 18:27 UTC NOAA

TAF EDDM 011700Z 0118/0224 23006KT 9999 FEW012 BKN040 PROB30
TEMPO 0118/0122 SHRA SCT012 BKN040CB PROB40
TEMPO 0200/0208 BKN012 PROB40
TEMPO 0209/0220 SHRA BKN025CB
BECMG 0219/0221 VRB03KT

Example: see airport list